createdAt,value
2023-05-15T00:00:26.041Z,8.70
2023-05-15T00:02:52.951Z,9.03
2023-05-15T00:05:21.295Z,11.57
2023-05-15T00:07:48.017Z,13.03
2023-05-15T00:10:14.780Z,10.73
2023-05-15T00:12:41.548Z,11.77
2023-05-15T00:15:08.777Z,12.70
2023-05-15T00:17:35.465Z,11.67
2023-05-15T00:20:02.373Z,11.50
2023-05-15T00:22:29.141Z,14.40
2023-05-15T00:24:55.856Z,17.20
2023-05-15T00:27:22.613Z,18.53
2023-05-15T00:29:49.260Z,11.80
2023-05-15T00:32:15.959Z,15.27
2023-05-15T00:34:42.708Z,14.70
2023-05-15T00:37:09.451Z,12.60
2023-05-15T00:39:36.539Z,13.37
2023-05-15T00:42:04.820Z,14.03
2023-05-15T00:44:32.226Z,12.10
2023-05-15T00:47:01.113Z,13.80
2023-05-15T00:49:29.649Z,14.47
2023-05-15T00:52:02.095Z,14.53
2023-05-15T00:54:28.797Z,16.10
2023-05-15T00:56:59.760Z,14.97
2023-05-15T00:59:28.471Z,16.60
2023-05-15T01:01:55.417Z,17.33
2023-05-15T01:04:22.861Z,14.53
2023-05-15T01:06:50.050Z,15.37
2023-05-15T01:09:19.152Z,14.30
2023-05-15T01:11:47.485Z,14.63
2023-05-15T01:14:14.192Z,22.67
2023-05-15T01:16:41.594Z,14.83
2023-05-15T01:19:08.383Z,14.90
2023-05-15T01:21:35.098Z,19.83
2023-05-15T01:24:20.183Z,19.13
2023-05-15T01:27:32.558Z,20.97
2023-05-15T01:30:07.969Z,18.90
2023-05-15T01:32:58.544Z,23.80
2023-05-15T01:35:33.772Z,21.60
2023-05-15T01:38:15.617Z,22.43
2023-05-15T01:40:45.919Z,30.60
2023-05-15T01:43:18.450Z,27.33
2023-05-15T01:45:45.180Z,27.97
2023-05-15T01:48:13.921Z,29.47
2023-05-15T01:50:42.877Z,27.63
2023-05-15T01:53:11.171Z,28.73
2023-05-15T01:55:39.034Z,28.37
2023-05-15T01:58:06.047Z,31.40
2023-05-15T02:00:33.261Z,29.10
2023-05-15T02:03:01.063Z,28.40
2023-05-15T02:05:29.362Z,26.67
2023-05-15T02:07:56.811Z,28.33
2023-05-15T02:10:24.112Z,32.87
2023-05-15T02:12:51.369Z,30.13
2023-05-15T02:15:19.211Z,29.57
2023-05-15T02:17:46.003Z,31.13
2023-05-15T02:20:12.912Z,32.77
2023-05-15T02:22:39.665Z,31.90
2023-05-15T02:25:06.534Z,30.63
2023-05-15T02:27:51.681Z,32.10
2023-05-15T02:30:32.789Z,32.90
2023-05-15T02:33:14.756Z,31.83
2023-05-15T02:35:47.447Z,37.27
2023-05-15T02:38:20.635Z,31.90
2023-05-15T02:40:48.768Z,29.67
2023-05-15T02:43:19.322Z,33.07
2023-05-15T02:45:47.971Z,30.77
2023-05-15T02:48:17.165Z,33.63
2023-05-15T02:50:44.206Z,32.70
2023-05-15T02:53:10.939Z,34.50
2023-05-15T02:55:38.124Z,35.53
2023-05-15T02:58:05.126Z,33.23
2023-05-15T03:00:31.935Z,32.10
2023-05-15T03:02:58.787Z,32.33
2023-05-15T03:05:26.233Z,38.60
2023-05-15T03:07:53.217Z,34.00
2023-05-15T03:10:23.676Z,34.40
2023-05-15T03:12:50.453Z,35.17
2023-05-15T03:15:17.264Z,33.30
2023-05-15T03:17:44.796Z,34.30
2023-05-15T03:20:11.556Z,37.70
2023-05-15T03:22:38.330Z,34.30
2023-05-15T03:25:05.354Z,33.87
2023-05-15T03:27:31.989Z,35.20
2023-05-15T03:29:58.666Z,34.83
2023-05-15T03:32:25.442Z,35.80
2023-05-15T03:34:52.055Z,32.43
2023-05-15T03:37:18.825Z,33.70
2023-05-15T03:39:45.674Z,35.90
2023-05-15T03:42:12.376Z,32.30
2023-05-15T03:44:39.084Z,35.30
2023-05-15T03:47:06.282Z,30.27
2023-05-15T03:49:32.994Z,33.50
2023-05-15T03:51:59.726Z,32.67
2023-05-15T03:54:26.491Z,33.40
2023-05-15T03:56:53.320Z,35.30
2023-05-15T03:59:19.977Z,33.73
2023-05-15T04:02:03.031Z,31.83
2023-05-15T04:04:30.655Z,33.63
2023-05-15T04:06:57.459Z,36.60
2023-05-15T04:09:24.123Z,35.10
2023-05-15T04:11:50.794Z,34.33
2023-05-15T04:14:17.452Z,39.03
2023-05-15T04:16:44.298Z,36.23
2023-05-15T04:19:11.220Z,35.60
2023-05-15T04:21:38.026Z,38.63
2023-05-15T04:24:04.932Z,34.47
2023-05-15T04:26:34.593Z,33.37
2023-05-15T04:29:04.553Z,34.63
2023-05-15T04:31:34.885Z,31.60
2023-05-15T04:34:01.662Z,36.47
2023-05-15T04:36:28.312Z,39.53
2023-05-15T04:38:54.918Z,43.67
2023-05-15T04:41:22.219Z,44.00
2023-05-15T04:43:48.883Z,46.37
2023-05-15T04:46:16.224Z,42.70
2023-05-15T04:48:42.856Z,41.50
2023-05-15T04:51:09.559Z,45.37
2023-05-15T04:53:36.445Z,45.43
2023-05-15T04:56:03.213Z,50.53
2023-05-15T04:58:29.872Z,49.07
2023-05-15T05:00:56.616Z,47.60
2023-05-15T05:03:23.305Z,48.17
2023-05-15T05:05:50.037Z,51.43
2023-05-15T05:08:16.729Z,47.07
2023-05-15T05:10:43.390Z,46.70
2023-05-15T05:13:10.164Z,48.63
2023-05-15T05:15:37.659Z,52.80
2023-05-15T05:18:04.860Z,44.33
2023-05-15T05:20:31.606Z,44.57
2023-05-15T05:22:58.291Z,45.00
2023-05-15T05:25:25.197Z,43.90
2023-05-15T05:27:52.414Z,43.00
2023-05-15T05:30:19.145Z,45.23
2023-05-15T05:32:45.924Z,41.50
2023-05-15T05:35:12.648Z,41.50
2023-05-15T05:37:41.294Z,35.40
2023-05-15T05:40:09.033Z,33.40
2023-05-15T05:42:35.768Z,32.77
2023-05-15T05:45:07.731Z,36.07
2023-05-15T05:47:34.394Z,30.20
2023-05-15T05:50:01.145Z,34.77
2023-05-15T05:52:29.084Z,32.80
2023-05-15T05:54:55.737Z,34.67
2023-05-15T05:57:22.533Z,31.83
2023-05-15T05:59:49.843Z,31.10
2023-05-15T06:02:16.577Z,29.13
2023-05-15T06:04:43.243Z,30.27
2023-05-15T06:07:10.002Z,28.57
2023-05-15T06:09:36.645Z,26.97
2023-05-15T06:12:04.904Z,27.53
2023-05-15T06:14:31.667Z,30.83
2023-05-15T06:16:58.323Z,29.07
2023-05-15T06:19:25.017Z,26.57
2023-05-15T06:21:51.729Z,24.93
2023-05-15T06:24:18.612Z,24.23
2023-05-15T06:26:45.390Z,21.70
2023-05-15T06:29:12.067Z,21.30
2023-05-15T06:31:38.717Z,21.80
2023-05-15T06:34:05.396Z,16.00
2023-05-15T06:36:32.103Z,20.38
2023-05-15T06:38:58.739Z,15.27
2023-05-15T06:41:25.626Z,16.52
2023-05-15T06:43:55.562Z,13.77
2023-05-15T06:46:22.343Z,13.07
2023-05-15T06:48:49.055Z,15.30
2023-05-15T06:51:15.901Z,13.60
2023-05-15T06:53:42.982Z,12.45
2023-05-15T06:56:09.940Z,11.85
2023-05-15T06:58:36.673Z,12.07
2023-05-15T07:01:03.945Z,13.68
2023-05-15T07:03:30.813Z,11.20
2023-05-15T07:05:57.480Z,10.55
2023-05-15T07:08:24.321Z,13.13
2023-05-15T07:10:51.498Z,8.38
2023-05-15T07:13:20.979Z,9.55
2023-05-15T07:15:47.756Z,8.77
2023-05-15T07:18:14.490Z,10.90
2023-05-15T07:20:41.187Z,11.68
2023-05-15T07:23:07.974Z,9.80
2023-05-15T07:25:34.747Z,8.43
2023-05-15T07:28:01.434Z,7.05
2023-05-15T07:30:28.355Z,10.13
2023-05-15T07:32:55.441Z,8.85
2023-05-15T07:35:22.347Z,10.40
2023-05-15T07:37:49.114Z,6.93
2023-05-15T07:40:15.868Z,9.75
2023-05-15T07:42:44.155Z,8.60
2023-05-15T07:45:13.013Z,7.00
2023-05-15T07:47:45.053Z,8.18
2023-05-15T07:50:11.741Z,7.80
2023-05-15T07:52:38.435Z,8.02
2023-05-15T07:55:07.099Z,10.85
2023-05-15T07:57:33.823Z,6.57
2023-05-15T08:00:02.442Z,7.07
2023-05-15T08:02:29.135Z,6.88
2023-05-15T08:04:56.039Z,6.45
2023-05-15T08:07:22.758Z,5.80
2023-05-15T08:09:49.664Z,8.40
2023-05-15T08:12:22.720Z,8.88
2023-05-15T08:14:51.126Z,7.60
2023-05-15T08:17:18.246Z,7.45
2023-05-15T08:19:45.126Z,6.22
2023-05-15T08:22:11.892Z,8.00
2023-05-15T08:24:39.422Z,7.30
2023-05-15T08:27:07.101Z,7.45
2023-05-15T08:29:35.625Z,8.38
2023-05-15T08:32:03.745Z,6.50
2023-05-15T08:34:30.401Z,6.28
2023-05-15T08:36:59.265Z,6.85
2023-05-15T08:39:26.092Z,10.50
2023-05-15T08:42:03.375Z,8.00
2023-05-15T08:44:30.976Z,11.52
2023-05-15T08:46:58.105Z,7.03
2023-05-15T08:49:44.295Z,4.68
2023-05-15T08:52:11.064Z,8.77
2023-05-15T08:54:39.716Z,6.85
2023-05-15T08:57:07.344Z,6.85
2023-05-15T08:59:34.123Z,6.20
2023-05-15T09:02:01.119Z,6.85
2023-05-15T09:04:27.910Z,3.92
2023-05-15T09:06:58.948Z,4.88
2023-05-15T09:09:27.735Z,4.65
2023-05-15T09:11:54.733Z,4.75
2023-05-15T09:14:21.520Z,6.78
2023-05-15T09:16:51.079Z,5.32
2023-05-15T09:19:20.960Z,7.35
2023-05-15T09:21:47.728Z,6.15
2023-05-15T09:24:18.936Z,4.80
2023-05-15T09:26:47.217Z,5.70
2023-05-15T09:29:18.813Z,3.83
2023-05-15T09:31:49.743Z,6.18
2023-05-15T09:34:16.628Z,6.80
2023-05-15T09:36:46.608Z,4.57
2023-05-15T09:39:13.350Z,3.95
2023-05-15T09:41:44.071Z,4.57
2023-05-15T09:44:24.819Z,6.15
2023-05-15T09:46:52.516Z,5.45
2023-05-15T09:49:26.804Z,4.88
2023-05-15T09:51:58.082Z,5.82
2023-05-15T09:54:27.436Z,4.32
2023-05-15T09:56:54.336Z,4.95
2023-05-15T09:59:24.561Z,8.55
2023-05-15T10:01:55.510Z,3.95
2023-05-15T10:04:22.215Z,7.05
2023-05-15T10:06:49.399Z,10.07
2023-05-15T10:09:16.413Z,4.97
2023-05-15T10:11:49.370Z,13.00
2023-05-15T10:14:17.892Z,5.25
2023-05-15T10:16:45.575Z,6.80
2023-05-15T10:19:13.697Z,5.47
2023-05-15T10:21:41.909Z,7.88
2023-05-15T10:24:09.126Z,7.65
2023-05-15T10:26:40.613Z,7.45
2023-05-15T10:29:10.797Z,5.88
2023-05-15T10:31:38.991Z,6.05
2023-05-15T10:34:06.763Z,7.43
2023-05-15T10:36:35.326Z,5.38
2023-05-15T10:39:06.612Z,4.72
2023-05-15T10:41:36.597Z,4.40
2023-05-15T10:44:03.241Z,5.97
2023-05-15T10:46:33.360Z,5.55
2023-05-15T10:49:01.748Z,6.72
2023-05-15T10:51:31.531Z,4.90
2023-05-15T10:54:01.231Z,6.78
2023-05-15T10:56:32.439Z,4.43
2023-05-15T10:59:07.156Z,4.50
2023-05-15T11:01:41.416Z,5.03
2023-05-15T11:04:11.267Z,6.53
2023-05-15T11:06:40.998Z,4.57
2023-05-15T11:09:26.586Z,5.45
2023-05-15T11:11:57.905Z,6.32
2023-05-15T11:14:26.671Z,8.05
2023-05-15T11:16:53.562Z,9.60
2023-05-15T11:19:44.523Z,6.45
2023-05-15T11:22:14.158Z,8.13
2023-05-15T11:25:06.840Z,9.05
2023-05-15T11:27:45.642Z,3.40
2023-05-15T11:30:26.470Z,3.67
2023-05-15T11:32:59.344Z,8.85
2023-05-15T11:35:47.306Z,4.15
2023-05-15T11:38:17.680Z,5.90
2023-05-15T11:40:50.376Z,7.22
2023-05-15T11:43:36.512Z,7.78
2023-05-15T11:46:03.168Z,5.22
2023-05-15T11:48:43.076Z,6.65
2023-05-15T11:51:30.192Z,6.50
2023-05-15T11:53:58.163Z,5.28
2023-05-15T11:56:28.382Z,6.32
2023-05-15T11:58:57.192Z,4.38
2023-05-15T12:01:24.517Z,6.43
2023-05-15T12:03:54.425Z,4.78
2023-05-15T12:06:21.991Z,4.43
2023-05-15T12:08:53.065Z,7.60
2023-05-15T12:11:24.234Z,3.70
2023-05-15T12:13:54.998Z,5.22
2023-05-15T12:16:28.594Z,4.47
2023-05-15T12:18:58.925Z,4.40
2023-05-15T12:21:28.933Z,4.68
2023-05-15T12:26:26.715Z,5.55
2023-05-15T12:28:54.465Z,4.93
2023-05-15T12:31:21.731Z,3.83
2023-05-15T12:33:48.726Z,3.97
2023-05-15T12:36:15.528Z,5.10
2023-05-15T12:38:42.305Z,3.55
2023-05-15T12:41:12.041Z,4.40
2023-05-15T12:43:38.871Z,3.03
2023-05-15T12:46:05.646Z,3.00
2023-05-15T12:48:32.970Z,4.72
2023-05-15T12:51:07.440Z,7.78
2023-05-15T12:53:34.651Z,4.70
2023-05-15T12:56:01.728Z,5.68
2023-05-15T12:58:28.458Z,4.25
2023-05-15T13:00:57.050Z,6.90
2023-05-15T13:03:25.099Z,4.70
2023-05-15T13:05:52.521Z,6.78
2023-05-15T13:08:19.635Z,6.22
2023-05-15T13:10:47.701Z,5.57
2023-05-15T13:13:15.502Z,6.88
2023-05-15T13:15:45.863Z,3.05
2023-05-15T13:18:17.523Z,4.00
2023-05-15T13:20:45.384Z,3.65
2023-05-15T13:23:15.048Z,7.93
2023-05-15T13:25:42.511Z,4.97
2023-05-15T13:28:12.878Z,3.05
2023-05-15T13:30:41.891Z,4.55
2023-05-15T13:33:10.826Z,3.17
2023-05-15T13:35:39.068Z,4.55
2023-05-15T13:38:06.524Z,4.43
2023-05-15T13:40:37.041Z,6.82
2023-05-15T13:43:03.748Z,5.97
2023-05-15T13:45:30.624Z,4.35
2023-05-15T13:47:57.322Z,4.43
2023-05-15T13:50:24.188Z,3.03
2023-05-15T13:52:51.127Z,8.13
2023-05-15T13:55:17.768Z,4.65
2023-05-15T13:57:45.735Z,9.52
2023-05-15T14:00:13.778Z,5.68
2023-05-15T14:02:43.051Z,7.15
2023-05-15T14:05:11.529Z,5.07
2023-05-15T14:07:38.324Z,4.25
2023-05-15T14:10:08.958Z,4.35
2023-05-15T14:12:46.651Z,9.95
2023-05-15T14:15:13.324Z,4.05
2023-05-15T14:17:40.111Z,4.65
2023-05-15T14:20:07.654Z,2.75
2023-05-15T14:22:34.286Z,3.38
2023-05-15T14:25:01.040Z,3.72
2023-05-15T14:27:27.792Z,6.55
2023-05-15T14:29:56.586Z,11.70
2023-05-15T14:32:24.908Z,10.52
2023-05-15T14:34:51.848Z,10.00
2023-05-15T14:37:19.401Z,8.48
2023-05-15T14:39:46.718Z,5.13
2023-05-15T14:42:13.406Z,5.32
2023-05-15T14:44:40.099Z,7.43
2023-05-15T14:47:12.761Z,8.52
2023-05-15T14:49:40.352Z,5.10
2023-05-15T14:52:09.730Z,5.45
2023-05-15T14:54:37.484Z,5.93
2023-05-15T14:57:04.519Z,4.95
2023-05-15T14:59:31.512Z,3.97
2023-05-15T15:01:58.288Z,4.55
2023-05-15T15:04:26.686Z,4.60
2023-05-15T15:06:56.885Z,6.32
2023-05-15T15:09:24.265Z,9.88
2023-05-15T15:11:51.380Z,8.48
2023-05-15T15:14:18.195Z,6.55
2023-05-15T15:16:46.059Z,5.95
2023-05-15T15:19:13.556Z,7.90
2023-05-15T15:21:40.516Z,6.53
2023-05-15T15:24:08.346Z,5.93
2023-05-15T15:26:37.634Z,9.43
2023-05-15T15:29:04.286Z,8.10
2023-05-15T15:31:31.767Z,7.78
2023-05-15T15:34:03.633Z,5.38
2023-05-15T15:36:31.864Z,6.80
2023-05-15T15:38:58.550Z,9.13
2023-05-15T15:41:25.411Z,6.78
2023-05-15T15:43:52.451Z,4.68
2023-05-15T15:46:19.282Z,5.40
2023-05-15T15:48:46.179Z,7.15
2023-05-15T15:51:12.832Z,5.70
2023-05-15T15:53:39.687Z,5.03
2023-05-15T15:56:07.450Z,5.00
2023-05-15T15:58:34.144Z,7.20
2023-05-15T16:01:01.258Z,7.68
2023-05-15T16:03:28.105Z,7.15
2023-05-15T16:05:54.951Z,10.55
2023-05-15T16:08:21.686Z,6.82
2023-05-15T16:10:48.486Z,6.13
2023-05-15T16:13:15.167Z,6.00
2023-05-15T16:15:41.816Z,7.38
2023-05-15T16:18:08.472Z,6.85
2023-05-15T16:20:38.199Z,7.05
2023-05-15T16:23:04.925Z,7.88
2023-05-15T16:25:31.834Z,6.78
2023-05-15T16:28:01.485Z,6.90
2023-05-15T16:30:40.056Z,4.70
2023-05-15T16:33:11.505Z,11.63
2023-05-15T16:35:38.347Z,7.75
2023-05-15T16:38:05.101Z,7.95
2023-05-15T16:40:31.813Z,6.07
2023-05-15T16:43:00.969Z,7.03
2023-05-15T16:45:27.822Z,7.80
2023-05-15T16:47:54.558Z,6.95
2023-05-15T16:50:21.450Z,8.52
2023-05-15T16:52:49.016Z,6.65
2023-05-15T16:55:17.837Z,8.27
2023-05-15T16:57:45.517Z,11.95
2023-05-15T17:00:13.522Z,5.15
2023-05-15T17:02:41.830Z,5.25
2023-05-15T17:05:10.468Z,5.60
2023-05-15T17:07:38.020Z,6.15
2023-05-15T17:10:06.117Z,9.18
2023-05-15T17:12:32.995Z,10.75
2023-05-15T17:14:59.817Z,7.07
2023-05-15T17:17:28.714Z,11.23
2023-05-15T17:19:56.316Z,11.35
2023-05-15T17:22:23.540Z,16.50
2023-05-15T17:24:52.201Z,7.17
2023-05-15T17:27:20.605Z,10.20
2023-05-15T17:29:48.085Z,10.03
2023-05-15T17:32:16.865Z,7.90
2023-05-15T17:34:44.024Z,8.33
2023-05-15T17:37:10.916Z,11.43
2023-05-15T17:39:37.672Z,10.93
2023-05-15T17:42:04.446Z,10.50
2023-05-15T17:44:31.306Z,9.53
2023-05-15T17:46:58.484Z,13.13
2023-05-15T17:49:26.150Z,10.60
2023-05-15T17:51:53.495Z,12.80
2023-05-15T17:54:20.557Z,9.93
2023-05-15T17:56:48.205Z,11.10
2023-05-15T17:59:14.829Z,9.60
2023-05-15T18:01:41.692Z,20.07
2023-05-15T18:04:08.690Z,7.70
2023-05-15T18:06:35.594Z,8.63
2023-05-15T18:09:02.684Z,10.30
2023-05-15T18:11:29.422Z,9.13
2023-05-15T18:13:56.132Z,7.27
2023-05-15T18:16:22.854Z,9.47
2023-05-15T18:18:52.005Z,6.23
2023-05-15T18:21:18.947Z,9.03
2023-05-15T18:23:45.673Z,9.93
2023-05-15T18:26:12.436Z,5.77
2023-05-15T18:28:39.144Z,6.97
2023-05-15T18:31:06.019Z,10.33
2023-05-15T18:33:36.808Z,6.37
2023-05-15T18:36:05.910Z,6.33
2023-05-15T18:38:34.091Z,4.97
2023-05-15T18:41:00.740Z,5.20
2023-05-15T18:43:27.578Z,11.83
2023-05-15T18:45:54.703Z,9.70
2023-05-15T18:48:21.358Z,6.17
2023-05-15T18:50:49.552Z,6.87
2023-05-15T18:53:16.484Z,7.87
2023-05-15T18:55:43.264Z,7.03
2023-05-15T18:58:09.969Z,7.03
2023-05-15T19:00:39.013Z,9.53
2023-05-15T19:03:08.985Z,7.67
2023-05-15T19:05:35.849Z,6.13
2023-05-15T19:08:03.158Z,5.93
2023-05-15T19:10:30.585Z,6.60
2023-05-15T19:12:58.213Z,9.50
2023-05-15T19:15:25.584Z,10.77
2023-05-15T19:17:52.686Z,12.13
2023-05-15T19:20:20.119Z,10.83
2023-05-15T19:22:46.885Z,7.63
2023-05-15T19:25:13.573Z,9.10
2023-05-15T19:27:40.390Z,9.77
2023-05-15T19:30:07.916Z,9.03
2023-05-15T19:32:34.787Z,9.83
2023-05-15T19:35:01.837Z,6.97
2023-05-15T19:37:29.038Z,10.97
2023-05-15T19:39:56.924Z,6.73
2023-05-15T19:42:23.887Z,11.27
2023-05-15T19:44:50.842Z,7.53
2023-05-15T19:47:17.524Z,8.67
2023-05-15T19:49:44.157Z,6.20
2023-05-15T19:52:10.839Z,12.37
2023-05-15T19:54:37.484Z,7.53
2023-05-15T19:57:06.274Z,9.57
2023-05-15T19:59:33.049Z,9.97
2023-05-15T20:02:01.589Z,8.60
2023-05-15T20:04:28.970Z,9.50
2023-05-15T20:06:55.748Z,8.93
2023-05-15T20:09:23.613Z,9.40
2023-05-15T20:11:51.059Z,11.27
2023-05-15T20:14:17.860Z,8.63
2023-05-15T20:16:44.773Z,7.40
2023-05-15T20:19:12.461Z,12.07
2023-05-15T20:21:39.421Z,6.03
2023-05-15T20:24:06.986Z,7.27
2023-05-15T20:26:35.996Z,6.90
2023-05-15T20:29:03.538Z,9.93
2023-05-15T20:31:30.332Z,8.63
2023-05-15T20:33:57.001Z,10.63
2023-05-15T20:36:25.518Z,7.13
2023-05-15T20:38:52.820Z,10.53
2023-05-15T20:41:21.538Z,7.47
2023-05-15T20:43:52.442Z,11.40
2023-05-15T20:46:19.322Z,8.67
2023-05-15T20:48:46.241Z,8.83
2023-05-15T20:51:12.864Z,15.40
2023-05-15T20:53:39.552Z,8.43
2023-05-15T20:56:06.506Z,9.33
2023-05-15T20:58:33.447Z,9.37
2023-05-15T21:01:02.899Z,9.40
2023-05-15T21:03:29.917Z,8.90
2023-05-15T21:05:57.465Z,8.10
2023-05-15T21:08:28.545Z,9.67
2023-05-15T21:10:55.563Z,13.37
2023-05-15T21:13:24.940Z,7.00
2023-05-15T21:15:51.700Z,12.60
2023-05-15T21:18:18.968Z,7.57
2023-05-15T21:20:45.890Z,12.30
2023-05-15T21:23:12.586Z,9.17
2023-05-15T21:25:39.970Z,9.40
2023-05-15T21:28:09.497Z,13.53
2023-05-15T21:30:43.465Z,8.83
2023-05-15T21:33:11.030Z,9.37
2023-05-15T21:35:38.328Z,11.93
2023-05-15T21:38:06.441Z,13.30
2023-05-15T21:40:33.109Z,12.57
2023-05-15T21:42:59.736Z,10.97
2023-05-15T21:45:26.458Z,17.73
2023-05-15T21:47:53.249Z,9.83
2023-05-15T21:50:20.021Z,11.90
2023-05-15T21:52:46.766Z,15.07
2023-05-15T21:55:13.425Z,10.00
2023-05-15T21:57:40.470Z,9.50
2023-05-15T22:00:08.335Z,13.80
2023-05-15T22:02:36.322Z,12.00
2023-05-15T22:05:03.909Z,14.57
2023-05-15T22:07:30.577Z,11.80
2023-05-15T22:09:57.329Z,12.43
2023-05-15T22:12:24.014Z,11.83
2023-05-15T22:14:58.283Z,9.50
2023-05-15T22:17:30.290Z,15.67
2023-05-15T22:20:07.358Z,12.63
2023-05-15T22:22:35.887Z,11.57
2023-05-15T22:25:02.745Z,9.60
2023-05-15T22:27:29.457Z,14.30
2023-05-15T22:29:56.503Z,10.77
2023-05-15T22:32:23.787Z,7.70
2023-05-15T22:34:50.480Z,12.23
2023-05-15T22:37:17.345Z,9.53
2023-05-15T22:39:44.085Z,11.33
2023-05-15T22:42:10.742Z,13.70
2023-05-15T22:44:37.436Z,10.83
2023-05-15T22:47:04.288Z,12.33
2023-05-15T22:49:31.167Z,10.10
2023-05-15T22:51:58.108Z,10.13
2023-05-15T22:54:25.014Z,10.53
2023-05-15T22:56:52.680Z,9.37
2023-05-15T22:59:20.062Z,10.70
2023-05-15T23:01:47.545Z,10.03
2023-05-15T23:04:14.759Z,8.00
2023-05-15T23:06:41.667Z,8.00
2023-05-15T23:09:09.118Z,9.57
2023-05-15T23:11:36.194Z,13.53
2023-05-15T23:14:03.519Z,8.07
2023-05-15T23:16:30.890Z,10.60
2023-05-15T23:18:57.929Z,8.73
2023-05-15T23:21:24.820Z,10.13
2023-05-15T23:23:51.630Z,8.97
2023-05-15T23:26:18.334Z,9.47
2023-05-15T23:28:45.012Z,6.27
2023-05-15T23:31:14.090Z,10.80
2023-05-15T23:33:41.160Z,10.30
2023-05-15T23:36:07.984Z,8.70
2023-05-15T23:38:34.705Z,7.23
2023-05-15T23:41:04.061Z,9.07
2023-05-15T23:43:30.771Z,8.20
2023-05-15T23:45:57.585Z,10.90
2023-05-15T23:48:24.377Z,8.83
2023-05-15T23:50:52.379Z,7.13
2023-05-15T23:53:19.233Z,9.40
2023-05-15T23:55:45.997Z,8.63
2023-05-15T23:58:12.718Z,5.57
